»·PEaware :: N188DR KEGE-KAPA

N188DR :: KEGE-KAPA

FLIGHT INFORMATION

Flight Status: Arrived
Operator: Privately registered:
United States
More flights under this callsign
Pilot: Anonymous 12234 (12234)
Aircraft: ROBIN DR-400
(DR40)
More flights by this aircraft type
Origin: KEGE Eagle Co Regl
United States
Destination: KAPA Centennial
United States
More flights between these airports :: More routes between these airports
Route: KLXV KAEJ
File this flight plan on PilotEdge
Remarks:
Altitude:
(Current/Filed)
11,500ft
Speed:
(Current/Filed)
115kts
Departed: 31-Jul-18 06:21 PM
Arrived: 31-Jul-18 07:40 PM
Distance/Time
Traveled:
96nm/1:19
Distance/Time
To Go:
Arrived

Flight Plot

Page will automatically refresh every two minutes.


Map Options




Map Legend


Flown Route
Filed Route
Departure Airport
Arrival Airport
Navaid (VOR, NDB)
Fix

Horizontal Profiles

Position Reports

Time Latitude Longitude Heading Altitude Ground
Speed
31-Jul-18 18:21 39.644110 -106.904886 261 6548ft 45kts
31-Jul-18 18:22 39.641144 -106.927832 263 6865ft 66kts
31-Jul-18 18:23 39.633154 -106.917432 80 7376ft 84kts
31-Jul-18 18:24 39.633003 -106.887161 83 7977ft 87kts
31-Jul-18 18:25 39.633977 -106.853571 80 8803ft 103kts
31-Jul-18 18:26 39.635788 -106.816768 84 9849ft 104kts
31-Jul-18 18:27 39.639253 -106.779903 59 10808ft 100kts
31-Jul-18 18:28 39.649222 -106.745146 61 11646ft 103kts
31-Jul-18 18:29 39.662410 -106.708076 68 11801ft 124kts
31-Jul-18 18:30 39.660422 -106.661603 96 11753ft 140kts
31-Jul-18 18:31 39.652627 -106.613368 99 11790ft 138kts
31-Jul-18 18:32 39.640971 -106.563524 102 11539ft 142kts
31-Jul-18 18:33 39.633878 -106.532520 106 11581ft 136kts
31-Jul-18 18:34 39.629997 -106.484745 74 11558ft 134kts
31-Jul-18 18:35 39.638930 -106.438655 77 11468ft 140kts
31-Jul-18 18:36 39.642359 -106.391505 82 11593ft 133kts
31-Jul-18 18:37 39.623147 -106.353358 149 11648ft 138kts
31-Jul-18 18:38 39.594233 -106.324032 149 11867ft 133kts
31-Jul-18 18:39 39.563872 -106.298819 120 12000ft 132kts
31-Jul-18 18:40 39.542305 -106.262121 158 12280ft 127kts
31-Jul-18 18:41 39.508683 -106.247487 184 12667ft 131kts
31-Jul-18 18:42 39.471124 -106.253296 186 13033ft 140kts
31-Jul-18 18:43 39.432172 -106.251787 191 13324ft 141kts
31-Jul-18 18:44 39.395489 -106.268779 203 13495ft 145kts
31-Jul-18 18:45 39.356657 -106.288036 193 13342ft 154kts
31-Jul-18 18:46 39.313332 -106.295465 190 12839ft 158kts
31-Jul-18 18:47 39.269382 -106.295437 175 12353ft 158kts
31-Jul-18 18:48 39.226068 -106.292594 182 11949ft 155kts
31-Jul-18 18:49 39.183568 -106.294159 181 11620ft 155kts
31-Jul-18 18:50 39.141114 -106.295549 180 11336ft 151kts
31-Jul-18 18:51 39.100229 -106.284024 167 11165ft 145kts
31-Jul-18 18:52 39.062529 -106.272177 161 11461ft 141kts
31-Jul-18 18:53 39.024786 -106.252780 155 11450ft 148kts
31-Jul-18 18:54 38.987167 -106.231871 155 11438ft 147kts
31-Jul-18 18:55 38.949581 -106.211417 155 11426ft 146kts
31-Jul-18 18:56 38.912565 -106.191483 155 11415ft 144kts
31-Jul-18 18:57 38.876581 -106.171219 146 11403ft 141kts
31-Jul-18 18:58 38.852866 -106.138180 65 11410ft 133kts
31-Jul-18 18:59 38.869891 -106.095731 61 11388ft 134kts
31-Jul-18 19:00 38.887101 -106.053083 60 11376ft 134kts
31-Jul-18 19:01 38.904033 -106.010703 60 11385ft 133kts
31-Jul-18 19:02 38.920781 -105.968214 60 11404ft 133kts
31-Jul-18 19:03 38.937220 -105.925901 60 11433ft 132kts
31-Jul-18 19:04 38.953505 -105.883331 60 11471ft 132kts
31-Jul-18 19:05 38.950927 -105.836860 101 11496ft 138kts
31-Jul-18 19:06 38.942393 -105.797194 101 11508ft 138kts
31-Jul-18 19:07 38.930570 -105.741632 101 11533ft 138kts
31-Jul-18 19:08 38.920635 -105.694374 101 11562ft 137kts
31-Jul-18 19:09 38.912394 -105.654778 101 11591ft 137kts
31-Jul-18 19:10 38.901107 -105.599805 101 11639ft 136kts
31-Jul-18 19:11 38.891580 -105.552713 101 11646ft 137kts
31-Jul-18 19:12 38.883672 -105.513151 101 11646ft 137kts
31-Jul-18 19:13 38.891861 -105.462682 51 11646ft 133kts
31-Jul-18 19:14 38.910438 -105.430787 47 11646ft 133kts
31-Jul-18 19:15 38.933055 -105.400047 44 11645ft 132kts
31-Jul-18 19:16 38.935202 -105.397116 44 11645ft 132kts
31-Jul-18 19:17 38.960277 -105.362558 44 11645ft 132kts
31-Jul-18 19:18 38.991880 -105.343057 14 11623ft 130kts
31-Jul-18 19:19 39.026493 -105.329721 14 11603ft 130kts
31-Jul-18 19:20 39.060871 -105.315857 14 11583ft 129kts
31-Jul-18 19:21 39.095220 -105.301946 14 11563ft 129kts
31-Jul-18 19:22 39.129148 -105.290343 11 11548ft 129kts
31-Jul-18 19:23 39.162767 -105.275180 21 11470ft 133kts
31-Jul-18 19:24 39.196169 -105.255510 21 10888ft 132kts
31-Jul-18 19:25 39.229787 -105.236145 21 10292ft 132kts
31-Jul-18 19:26 39.263333 -105.217266 21 9699ft 132kts
31-Jul-18 19:27 39.296008 -105.199240 21 9393ft 120kts
31-Jul-18 19:28 39.326199 -105.182600 21 9360ft 116kts
31-Jul-18 19:29 39.356475 -105.170914 12 9504ft 103kts
31-Jul-18 19:30 39.386472 -105.165013 2 9547ft 114kts
31-Jul-18 19:31 39.412748 -105.147823 53 9518ft 119kts
31-Jul-18 19:32 39.430810 -105.111618 53 9194ft 123kts
31-Jul-18 19:33 39.449560 -105.075118 53 8701ft 123kts
31-Jul-18 19:34 39.468696 -105.038858 53 8206ft 123kts
31-Jul-18 19:35 39.488339 -105.002575 52 7687ft 125kts
31-Jul-18 19:36 39.504024 -104.963351 59 7250ft 125kts
31-Jul-18 19:37 39.518302 -104.924835 74 7023ft 114kts
31-Jul-18 19:38 39.524624 -104.887604 73 6688ft 98kts
31-Jul-18 19:39 39.532120 -104.858590 56 6533ft 80kts
31-Jul-18 19:40 39.553295 -104.852664 0 6055ft 72kts
31-Jul-18 19:41 39.566994 -104.853213 0 5885ft 15kts
31-Jul-18 19:42 39.569481 -104.853087 83 5885ft 1kts
31-Jul-18 19:43 39.570159 -104.852249 355 5885ft 7kts
31-Jul-18 19:44 39.572656 -104.852355 355 5885ft 11kts
31-Jul-18 19:45 39.574232 -104.852229 84 5885ft 0kts
31-Jul-18 19:46 39.574302 -104.850230 82 5885ft 8kts
31-Jul-18 19:47 39.576264 -104.849696 358 5885ft 9kts
31-Jul-18 19:48 39.579068 -104.849824 356 5885ft 11kts
31-Jul-18 19:49 39.581008 -104.849273 50 5885ft 4kts
31-Jul-18 19:50 39.581054 -104.849029 82 5885ft 0kts
31-Jul-18 19:51 39.581054 -104.849029 82 5885ft 0kts
31-Jul-18 19:52 39.581054 -104.849029 82 5885ft 0kts

Navigation Log

Ident Type
Flight plan parsing failed, navigation log unavailable